sensor_id;sensor_type;location;lat;lon;timestamp;P1;P2;P0
70691;PMS5003;58267;51.156;17.044;2023-11-21T00:01:12;9;8;
70691;PMS5003;58267;51.156;17.044;2023-11-21T00:03:37;10;9;
70691;PMS5003;58267;51.156;17.044;2023-11-21T00:06:03;8;8;
70691;PMS5003;58267;51.156;17.044;2023-11-21T00:08:28;10;8;
70691;PMS5003;58267;51.156;17.044;2023-11-21T00:10:53;5;5;
70691;PMS5003;58267;51.156;17.044;2023-11-21T00:13:18;10;9;
70691;PMS5003;58267;51.156;17.044;2023-11-21T00:15:44;10;9;
70691;PMS5003;58267;51.156;17.044;2023-11-21T00:18:09;6;6;
70691;PMS5003;58267;51.156;17.044;2023-11-21T00:20:34;9;9;
70691;PMS5003;58267;51.156;17.044;2023-11-21T00:22:59;6;6;
70691;PMS5003;58267;51.156;17.044;2023-11-21T00:25:24;8;8;
70691;PMS5003;58267;51.156;17.044;2023-11-21T00:27:50;8;7;
70691;PMS5003;58267;51.156;17.044;2023-11-21T00:30:15;9;8;
70691;PMS5003;58267;51.156;17.044;2023-11-21T00:32:41;9;8;
70691;PMS5003;58267;51.156;17.044;2023-11-21T00:35:06;6;6;
70691;PMS5003;58267;51.156;17.044;2023-11-21T00:37:31;11;10;
70691;PMS5003;58267;51.156;17.044;2023-11-21T00:39:57;6;6;
70691;PMS5003;58267;51.156;17.044;2023-11-21T00:42:22;7;7;
70691;PMS5003;58267;51.156;17.044;2023-11-21T00:44:47;8;7;
70691;PMS5003;58267;51.156;17.044;2023-11-21T00:47:12;5;5;
70691;PMS5003;58267;51.156;17.044;2023-11-21T00:49:37;7;6;
70691;PMS5003;58267;51.156;17.044;2023-11-21T00:52:03;7;7;
70691;PMS5003;58267;51.156;17.044;2023-11-21T00:54:28;9;7;
70691;PMS5003;58267;51.156;17.044;2023-11-21T00:56:54;12;10;
70691;PMS5003;58267;51.156;17.044;2023-11-21T00:59:19;6;6;
70691;PMS5003;58267;51.156;17.044;2023-11-21T01:01:44;7;7;
70691;PMS5003;58267;51.156;17.044;2023-11-21T01:04:10;6;6;
70691;PMS5003;58267;51.156;17.044;2023-11-21T01:06:35;9;7;
70691;PMS5003;58267;51.156;17.044;2023-11-21T01:09:00;9;9;
70691;PMS5003;58267;51.156;17.044;2023-11-21T01:11:26;8;7;
70691;PMS5003;58267;51.156;17.044;2023-11-21T01:13:51;6;6;
70691;PMS5003;58267;51.156;17.044;2023-11-21T01:16:16;8;7;
70691;PMS5003;58267;51.156;17.044;2023-11-21T01:18:41;8;6;
70691;PMS5003;58267;51.156;17.044;2023-11-21T01:21:06;9;8;
70691;PMS5003;58267;51.156;17.044;2023-11-21T01:23:32;6;6;
70691;PMS5003;58267;51.156;17.044;2023-11-21T01:25:57;6;6;
70691;PMS5003;58267;51.156;17.044;2023-11-21T01:28:22;5;5;
70691;PMS5003;58267;51.156;17.044;2023-11-21T01:30:47;8;7;
70691;PMS5003;58267;51.156;17.044;2023-11-21T01:33:12;9;9;
70691;PMS5003;58267;51.156;17.044;2023-11-21T01:35:38;9;8;
70691;PMS5003;58267;51.156;17.044;2023-11-21T01:38:03;8;8;
70691;PMS5003;58267;51.156;17.044;2023-11-21T01:40:28;7;7;
70691;PMS5003;58267;51.156;17.044;2023-11-21T01:42:53;7;7;
70691;PMS5003;58267;51.156;17.044;2023-11-21T01:45:18;6;6;
70691;PMS5003;58267;51.156;17.044;2023-11-21T01:47:43;8;8;
70691;PMS5003;58267;51.156;17.044;2023-11-21T01:50:09;8;7;
70691;PMS5003;58267;51.156;17.044;2023-11-21T01:52:34;5;5;
70691;PMS5003;58267;51.156;17.044;2023-11-21T01:54:59;8;8;
70691;PMS5003;58267;51.156;17.044;2023-11-21T01:57:25;9;8;
70691;PMS5003;58267;51.156;17.044;2023-11-21T01:59:50;7;6;
70691;PMS5003;58267;51.156;17.044;2023-11-21T02:02:15;9;6;
70691;PMS5003;58267;51.156;17.044;2023-11-21T02:04:41;7;7;
70691;PMS5003;58267;51.156;17.044;2023-11-21T02:07:06;7;6;
70691;PMS5003;58267;51.156;17.044;2023-11-21T02:09:31;7;6;
70691;PMS5003;58267;51.156;17.044;2023-11-21T02:11:57;4;4;
70691;PMS5003;58267;51.156;17.044;2023-11-21T02:14:22;5;5;
70691;PMS5003;58267;51.156;17.044;2023-11-21T02:16:48;8;7;
70691;PMS5003;58267;51.156;17.044;2023-11-21T02:19:13;6;6;
70691;PMS5003;58267;51.156;17.044;2023-11-21T02:21:38;9;8;
70691;PMS5003;58267;51.156;17.044;2023-11-21T02:24:03;7;7;
70691;PMS5003;58267;51.156;17.044;2023-11-21T02:26:28;7;7;
70691;PMS5003;58267;51.156;17.044;2023-11-21T02:28:53;8;8;
70691;PMS5003;58267;51.156;17.044;2023-11-21T02:31:19;8;7;
70691;PMS5003;58267;51.156;17.044;2023-11-21T02:33:44;6;6;
70691;PMS5003;58267;51.156;17.044;2023-11-21T02:36:10;8;7;
70691;PMS5003;58267;51.156;17.044;2023-11-21T02:38:35;8;8;
70691;PMS5003;58267;51.156;17.044;2023-11-21T02:41:00;7;7;
70691;PMS5003;58267;51.156;17.044;2023-11-21T02:43:25;8;7;
70691;PMS5003;58267;51.156;17.044;2023-11-21T02:45:50;8;8;
70691;PMS5003;58267;51.156;17.044;2023-11-21T02:48:15;10;9;
70691;PMS5003;58267;51.156;17.044;2023-11-21T02:50:41;7;7;
70691;PMS5003;58267;51.156;17.044;2023-11-21T02:53:06;11;11;
70691;PMS5003;58267;51.156;17.044;2023-11-21T02:55:31;9;9;
70691;PMS5003;58267;51.156;17.044;2023-11-21T02:57:56;9;8;
70691;PMS5003;58267;51.156;17.044;2023-11-21T03:00:21;10;9;
70691;PMS5003;58267;51.156;17.044;2023-11-21T03:02:47;9;9;
70691;PMS5003;58267;51.156;17.044;2023-11-21T03:05:12;13;12;
70691;PMS5003;58267;51.156;17.044;2023-11-21T03:07:38;13;12;
70691;PMS5003;58267;51.156;17.044;2023-11-21T03:10:03;13;13;
70691;PMS5003;58267;51.156;17.044;2023-11-21T03:12:29;12;11;
70691;PMS5003;58267;51.156;17.044;2023-11-21T03:14:54;11;11;
70691;PMS5003;58267;51.156;17.044;2023-11-21T03:17:19;13;12;
70691;PMS5003;58267;51.156;17.044;2023-11-21T03:19:45;14;12;
70691;PMS5003;58267;51.156;17.044;2023-11-21T03:22:11;13;12;
70691;PMS5003;58267;51.156;17.044;2023-11-21T03:24:36;13;12;
70691;PMS5003;58267;51.156;17.044;2023-11-21T03:27:02;14;12;
70691;PMS5003;58267;51.156;17.044;2023-11-21T03:29:27;12;11;
70691;PMS5003;58267;51.156;17.044;2023-11-21T03:31:52;13;11;
70691;PMS5003;58267;51.156;17.044;2023-11-21T03:34:22;18;15;
70691;PMS5003;58267;51.156;17.044;2023-11-21T03:36:43;11;11;
70691;PMS5003;58267;51.156;17.044;2023-11-21T03:39:08;13;11;
70691;PMS5003;58267;51.156;17.044;2023-11-21T03:41:33;13;12;
70691;PMS5003;58267;51.156;17.044;2023-11-21T03:43:59;15;15;
70691;PMS5003;58267;51.156;17.044;2023-11-21T03:46:24;13;12;
70691;PMS5003;58267;51.156;17.044;2023-11-21T03:48:49;10;10;
70691;PMS5003;58267;51.156;17.044;2023-11-21T03:51:14;17;15;
70691;PMS5003;58267;51.156;17.044;2023-11-21T03:53:40;13;12;
70691;PMS5003;58267;51.156;17.044;2023-11-21T03:56:05;13;11;
70691;PMS5003;58267;51.156;17.044;2023-11-21T03:58:31;12;11;
70691;PMS5003;58267;51.156;17.044;2023-11-21T04:00:56;13;13;
70691;PMS5003;58267;51.156;17.044;2023-11-21T04:03:21;14;13;
70691;PMS5003;58267;51.156;17.044;2023-11-21T04:05:47;11;11;
70691;PMS5003;58267;51.156;17.044;2023-11-21T04:08:12;11;11;
70691;PMS5003;58267;51.156;17.044;2023-11-21T04:10:38;10;9;
70691;PMS5003;58267;51.156;17.044;2023-11-21T04:13:03;12;12;
70691;PMS5003;58267;51.156;17.044;2023-11-21T04:15:28;13;11;
70691;PMS5003;58267;51.156;17.044;2023-11-21T04:17:54;13;13;
70691;PMS5003;58267;51.156;17.044;2023-11-21T04:20:19;15;14;
70691;PMS5003;58267;51.156;17.044;2023-11-21T04:22:44;11;9;
70691;PMS5003;58267;51.156;17.044;2023-11-21T04:25:10;13;11;
70691;PMS5003;58267;51.156;17.044;2023-11-21T04:27:35;11;10;
70691;PMS5003;58267;51.156;17.044;2023-11-21T04:30:01;11;10;
70691;PMS5003;58267;51.156;17.044;2023-11-21T04:32:26;16;15;
70691;PMS5003;58267;51.156;17.044;2023-11-21T04:34:52;9;9;
70691;PMS5003;58267;51.156;17.044;2023-11-21T04:37:17;11;10;
70691;PMS5003;58267;51.156;17.044;2023-11-21T04:39:42;12;9;
70691;PMS5003;58267;51.156;17.044;2023-11-21T04:42:08;10;10;
70691;PMS5003;58267;51.156;17.044;2023-11-21T04:44:34;8;7;
70691;PMS5003;58267;51.156;17.044;2023-11-21T04:46:59;10;9;
70691;PMS5003;58267;51.156;17.044;2023-11-21T04:49:24;8;8;
70691;PMS5003;58267;51.156;17.044;2023-11-21T04:51:50;12;10;
70691;PMS5003;58267;51.156;17.044;2023-11-21T04:54:15;10;9;
70691;PMS5003;58267;51.156;17.044;2023-11-21T04:56:40;10;10;
70691;PMS5003;58267;51.156;17.044;2023-11-21T04:59:06;9;9;
70691;PMS5003;58267;51.156;17.044;2023-11-21T05:01:31;9;9;
70691;PMS5003;58267;51.156;17.044;2023-11-21T05:03:56;9;9;
70691;PMS5003;58267;51.156;17.044;2023-11-21T05:06:21;8;8;
70691;PMS5003;58267;51.156;17.044;2023-11-21T05:08:46;9;9;
70691;PMS5003;58267;51.156;17.044;2023-11-21T05:11:11;7;7;
70691;PMS5003;58267;51.156;17.044;2023-11-21T05:13:37;10;9;
70691;PMS5003;58267;51.156;17.044;2023-11-21T05:16:02;9;9;
70691;PMS5003;58267;51.156;17.044;2023-11-21T05:18:28;13;11;
70691;PMS5003;58267;51.156;17.044;2023-11-21T05:20:53;12;12;
70691;PMS5003;58267;51.156;17.044;2023-11-21T05:23:18;11;9;
70691;PMS5003;58267;51.156;17.044;2023-11-21T05:25:43;12;12;
70691;PMS5003;58267;51.156;17.044;2023-11-21T05:28:08;11;10;
70691;PMS5003;58267;51.156;17.044;2023-11-21T05:30:33;13;13;
70691;PMS5003;58267;51.156;17.044;2023-11-21T05:32:59;11;11;
70691;PMS5003;58267;51.156;17.044;2023-11-21T05:35:24;11;11;
70691;PMS5003;58267;51.156;17.044;2023-11-21T05:37:49;12;12;
70691;PMS5003;58267;51.156;17.044;2023-11-21T05:40:15;11;11;
70691;PMS5003;58267;51.156;17.044;2023-11-21T05:42:40;11;11;
70691;PMS5003;58267;51.156;17.044;2023-11-21T05:45:06;11;11;
70691;PMS5003;58267;51.156;17.044;2023-11-21T05:47:31;11;10;
70691;PMS5003;58267;51.156;17.044;2023-11-21T05:49:56;18;14;
70691;PMS5003;58267;51.156;17.044;2023-11-21T05:52:21;17;16;
70691;PMS5003;58267;51.156;17.044;2023-11-21T05:54:47;16;15;
70691;PMS5003;58267;51.156;17.044;2023-11-21T05:57:12;12;12;
70691;PMS5003;58267;51.156;17.044;2023-11-21T05:59:37;12;11;
70691;PMS5003;58267;51.156;17.044;2023-11-21T06:02:03;14;13;
70691;PMS5003;58267;51.156;17.044;2023-11-21T06:04:28;15;15;
70691;PMS5003;58267;51.156;17.044;2023-11-21T06:06:53;12;12;
70691;PMS5003;58267;51.156;17.044;2023-11-21T06:09:19;12;10;
70691;PMS5003;58267;51.156;17.044;2023-11-21T06:11:44;13;13;
70691;PMS5003;58267;51.156;17.044;2023-11-21T06:14:09;14;14;
70691;PMS5003;58267;51.156;17.044;2023-11-21T06:16:34;14;13;
70691;PMS5003;58267;51.156;17.044;2023-11-21T06:18:59;13;13;
70691;PMS5003;58267;51.156;17.044;2023-11-21T06:21:24;13;13;
70691;PMS5003;58267;51.156;17.044;2023-11-21T06:23:49;11;11;
70691;PMS5003;58267;51.156;17.044;2023-11-21T06:26:14;15;13;
70691;PMS5003;58267;51.156;17.044;2023-11-21T06:28:40;14;14;
70691;PMS5003;58267;51.156;17.044;2023-11-21T06:31:05;12;12;
70691;PMS5003;58267;51.156;17.044;2023-11-21T06:33:30;13;11;
70691;PMS5003;58267;51.156;17.044;2023-11-21T06:35:55;17;15;
70691;PMS5003;58267;51.156;17.044;2023-11-21T06:38:21;16;15;
70691;PMS5003;58267;51.156;17.044;2023-11-21T06:40:46;14;14;
70691;PMS5003;58267;51.156;17.044;2023-11-21T06:43:11;14;14;
70691;PMS5003;58267;51.156;17.044;2023-11-21T06:45:36;14;14;
70691;PMS5003;58267;51.156;17.044;2023-11-21T06:48:02;14;14;
70691;PMS5003;58267;51.156;17.044;2023-11-21T06:50:27;15;14;
70691;PMS5003;58267;51.156;17.044;2023-11-21T06:52:53;16;14;
70691;PMS5003;58267;51.156;17.044;2023-11-21T06:55:18;13;13;
70691;PMS5003;58267;51.156;17.044;2023-11-21T06:57:43;19;16;
70691;PMS5003;58267;51.156;17.044;2023-11-21T07:00:09;19;17;
70691;PMS5003;58267;51.156;17.044;2023-11-21T07:02:34;15;14;
70691;PMS5003;58267;51.156;17.044;2023-11-21T07:04:59;16;15;
70691;PMS5003;58267;51.156;17.044;2023-11-21T07:07:24;17;17;
70691;PMS5003;58267;51.156;17.044;2023-11-21T07:09:50;19;18;
70691;PMS5003;58267;51.156;17.044;2023-11-21T07:12:15;15;14;
70691;PMS5003;58267;51.156;17.044;2023-11-21T07:14:40;16;14;
70691;PMS5003;58267;51.156;17.044;2023-11-21T07:17:05;14;14;
70691;PMS5003;58267;51.156;17.044;2023-11-21T07:19:31;19;19;
70691;PMS5003;58267;51.156;17.044;2023-11-21T07:21:56;16;16;
70691;PMS5003;58267;51.156;17.044;2023-11-21T07:24:22;20;18;
70691;PMS5003;58267;51.156;17.044;2023-11-21T07:26:47;20;18;
70691;PMS5003;58267;51.156;17.044;2023-11-21T07:29:12;17;16;
70691;PMS5003;58267;51.156;17.044;2023-11-21T07:31:38;17;17;
70691;PMS5003;58267;51.156;17.044;2023-11-21T07:34:03;16;16;
70691;PMS5003;58267;51.156;17.044;2023-11-21T07:36:29;20;20;
70691;PMS5003;58267;51.156;17.044;2023-11-21T07:38:55;14;14;
70691;PMS5003;58267;51.156;17.044;2023-11-21T07:41:20;22;22;
70691;PMS5003;58267;51.156;17.044;2023-11-21T07:43:46;18;16;
70691;PMS5003;58267;51.156;17.044;2023-11-21T07:46:12;21;16;
70691;PMS5003;58267;51.156;17.044;2023-11-21T07:48:37;21;19;
70691;PMS5003;58267;51.156;17.044;2023-11-21T07:51:03;21;20;
70691;PMS5003;58267;51.156;17.044;2023-11-21T07:53:28;20;18;
70691;PMS5003;58267;51.156;17.044;2023-11-21T07:55:53;16;16;
70691;PMS5003;58267;51.156;17.044;2023-11-21T07:58:18;16;16;
70691;PMS5003;58267;51.156;17.044;2023-11-21T08:00:44;16;15;
70691;PMS5003;58267;51.156;17.044;2023-11-21T08:03:10;17;16;
70691;PMS5003;58267;51.156;17.044;2023-11-21T08:05:35;18;18;
70691;PMS5003;58267;51.156;17.044;2023-11-21T08:08:00;18;18;
70691;PMS5003;58267;51.156;17.044;2023-11-21T08:10:26;23;20;
70691;PMS5003;58267;51.156;17.044;2023-11-21T08:12:52;16;15;
70691;PMS5003;58267;51.156;17.044;2023-11-21T08:15:17;21;20;
70691;PMS5003;58267;51.156;17.044;2023-11-21T08:17:43;17;17;
70691;PMS5003;58267;51.156;17.044;2023-11-21T08:20:09;17;16;
70691;PMS5003;58267;51.156;17.044;2023-11-21T08:22:34;18;17;
70691;PMS5003;58267;51.156;17.044;2023-11-21T08:24:59;16;15;
70691;PMS5003;58267;51.156;17.044;2023-11-21T08:27:24;18;17;
70691;PMS5003;58267;51.156;17.044;2023-11-21T08:29:50;20;17;
70691;PMS5003;58267;51.156;17.044;2023-11-21T08:32:15;19;17;
70691;PMS5003;58267;51.156;17.044;2023-11-21T08:34:43;13;13;
70691;PMS5003;58267;51.156;17.044;2023-11-21T08:37:08;16;16;
70691;PMS5003;58267;51.156;17.044;2023-11-21T08:39:33;18;18;
70691;PMS5003;58267;51.156;17.044;2023-11-21T08:41:58;17;16;
70691;PMS5003;58267;51.156;17.044;2023-11-21T08:44:24;17;16;
70691;PMS5003;58267;51.156;17.044;2023-11-21T08:46:49;19;17;
70691;PMS5003;58267;51.156;17.044;2023-11-21T08:49:15;16;16;
70691;PMS5003;58267;51.156;17.044;2023-11-21T08:51:40;18;18;
70691;PMS5003;58267;51.156;17.044;2023-11-21T08:54:06;16;14;
70691;PMS5003;58267;51.156;17.044;2023-11-21T08:56:31;17;16;
70691;PMS5003;58267;51.156;17.044;2023-11-21T08:58:56;18;17;
70691;PMS5003;58267;51.156;17.044;2023-11-21T09:01:21;14;14;
70691;PMS5003;58267;51.156;17.044;2023-11-21T09:03:47;17;16;
70691;PMS5003;58267;51.156;17.044;2023-11-21T09:06:12;15;15;
70691;PMS5003;58267;51.156;17.044;2023-11-21T09:08:38;17;17;
70691;PMS5003;58267;51.156;17.044;2023-11-21T09:11:04;20;20;
70691;PMS5003;58267;51.156;17.044;2023-11-21T09:13:29;18;17;
70691;PMS5003;58267;51.156;17.044;2023-11-21T09:15:54;18;15;
70691;PMS5003;58267;51.156;17.044;2023-11-21T09:18:20;18;17;
70691;PMS5003;58267;51.156;17.044;2023-11-21T09:20:45;19;17;
70691;PMS5003;58267;51.156;17.044;2023-11-21T09:23:11;16;14;
70691;PMS5003;58267;51.156;17.044;2023-11-21T09:25:37;17;16;
70691;PMS5003;58267;51.156;17.044;2023-11-21T09:28:03;17;15;
70691;PMS5003;58267;51.156;17.044;2023-11-21T09:30:28;20;18;
70691;PMS5003;58267;51.156;17.044;2023-11-21T09:32:54;19;17;
70691;PMS5003;58267;51.156;17.044;2023-11-21T09:35:19;15;14;
70691;PMS5003;58267;51.156;17.044;2023-11-21T09:37:44;17;17;
70691;PMS5003;58267;51.156;17.044;2023-11-21T09:40:10;16;16;
70691;PMS5003;58267;51.156;17.044;2023-11-21T09:42:36;15;14;
70691;PMS5003;58267;51.156;17.044;2023-11-21T09:45:02;17;15;
70691;PMS5003;58267;51.156;17.044;2023-11-21T09:47:26;11;11;
70691;PMS5003;58267;51.156;17.044;2023-11-21T09:49:52;17;16;
70691;PMS5003;58267;51.156;17.044;2023-11-21T09:52:21;18;14;
70691;PMS5003;58267;51.156;17.044;2023-11-21T09:54:42;15;13;
70691;PMS5003;58267;51.156;17.044;2023-11-21T09:57:08;13;12;
70691;PMS5003;58267;51.156;17.044;2023-11-21T09:59:33;13;11;
70691;PMS5003;58267;51.156;17.044;2023-11-21T10:01:58;14;14;
70691;PMS5003;58267;51.156;17.044;2023-11-21T10:04:24;12;12;
70691;PMS5003;58267;51.156;17.044;2023-11-21T10:06:49;16;15;
70691;PMS5003;58267;51.156;17.044;2023-11-21T10:09:15;13;13;
70691;PMS5003;58267;51.156;17.044;2023-11-21T10:11:41;13;12;
70691;PMS5003;58267;51.156;17.044;2023-11-21T10:14:06;11;10;
70691;PMS5003;58267;51.156;17.044;2023-11-21T10:16:31;16;14;
70691;PMS5003;58267;51.156;17.044;2023-11-21T10:18:56;30;26;
70691;PMS5003;58267;51.156;17.044;2023-11-21T10:21:22;34;33;
70691;PMS5003;58267;51.156;17.044;2023-11-21T10:23:48;39;38;
70691;PMS5003;58267;51.156;17.044;2023-11-21T10:26:13;40;39;
70691;PMS5003;58267;51.156;17.044;2023-11-21T10:28:39;42;41;
70691;PMS5003;58267;51.156;17.044;2023-11-21T10:31:06;41;38;
70691;PMS5003;58267;51.156;17.044;2023-11-21T10:33:29;39;37;
70691;PMS5003;58267;51.156;17.044;2023-11-21T10:35:54;46;44;
70691;PMS5003;58267;51.156;17.044;2023-11-21T10:38:20;49;47;
70691;PMS5003;58267;51.156;17.044;2023-11-21T10:40:45;43;41;
70691;PMS5003;58267;51.156;17.044;2023-11-21T10:43:11;41;39;
70691;PMS5003;58267;51.156;17.044;2023-11-21T10:45:36;38;37;
70691;PMS5003;58267;51.156;17.044;2023-11-21T10:48:04;44;40;
70691;PMS5003;58267;51.156;17.044;2023-11-21T10:50:27;38;36;
70691;PMS5003;58267;51.156;17.044;2023-11-21T10:52:52;40;38;
70691;PMS5003;58267;51.156;17.044;2023-11-21T10:55:17;36;34;
70691;PMS5003;58267;51.156;17.044;2023-11-21T10:57:42;40;39;
70691;PMS5003;58267;51.156;17.044;2023-11-21T11:00:08;37;36;
70691;PMS5003;58267;51.156;17.044;2023-11-21T11:02:33;37;35;
70691;PMS5003;58267;51.156;17.044;2023-11-21T11:04:59;40;38;
70691;PMS5003;58267;51.156;17.044;2023-11-21T11:07:25;36;35;
70691;PMS5003;58267;51.156;17.044;2023-11-21T11:09:49;35;34;
70691;PMS5003;58267;51.156;17.044;2023-11-21T11:12:14;42;37;
70691;PMS5003;58267;51.156;17.044;2023-11-21T11:14:40;37;35;
70691;PMS5003;58267;51.156;17.044;2023-11-21T11:17:05;38;35;
70691;PMS5003;58267;51.156;17.044;2023-11-21T11:19:30;34;30;
70691;PMS5003;58267;51.156;17.044;2023-11-21T11:21:59;36;36;
70691;PMS5003;58267;51.156;17.044;2023-11-21T11:24:27;38;35;
70691;PMS5003;58267;51.156;17.044;2023-11-21T11:26:47;41;36;
70691;PMS5003;58267;51.156;17.044;2023-11-21T11:29:13;32;30;
70691;PMS5003;58267;51.156;17.044;2023-11-21T11:31:39;37;35;
70691;PMS5003;58267;51.156;17.044;2023-11-21T11:34:05;37;36;
70691;PMS5003;58267;51.156;17.044;2023-11-21T11:36:29;40;40;
70691;PMS5003;58267;51.156;17.044;2023-11-21T11:38:53;46;44;
70691;PMS5003;58267;51.156;17.044;2023-11-21T11:43:44;43;38;
70691;PMS5003;58267;51.156;17.044;2023-11-21T11:46:09;38;35;
70691;PMS5003;58267;51.156;17.044;2023-11-21T11:48:35;42;37;
70691;PMS5003;58267;51.156;17.044;2023-11-21T11:51:02;35;32;
70691;PMS5003;58267;51.156;17.044;2023-11-21T11:53:26;34;30;
70691;PMS5003;58267;51.156;17.044;2023-11-21T11:58:18;43;40;
70691;PMS5003;58267;51.156;17.044;2023-11-21T12:00:43;34;31;
70691;PMS5003;58267;51.156;17.044;2023-11-21T12:03:08;35;33;
70691;PMS5003;58267;51.156;17.044;2023-11-21T12:05:34;31;29;
70691;PMS5003;58267;51.156;17.044;2023-11-21T12:08:00;35;32;
70691;PMS5003;58267;51.156;17.044;2023-11-21T12:10:25;34;30;
70691;PMS5003;58267;51.156;17.044;2023-11-21T12:12:50;26;26;
70691;PMS5003;58267;51.156;17.044;2023-11-21T12:15:16;30;26;
70691;PMS5003;58267;51.156;17.044;2023-11-21T12:17:41;28;26;
70691;PMS5003;58267;51.156;17.044;2023-11-21T12:20:07;24;23;
70691;PMS5003;58267;51.156;17.044;2023-11-21T12:22:37;26;25;
70691;PMS5003;58267;51.156;17.044;2023-11-21T12:24:58;25;25;
70691;PMS5003;58267;51.156;17.044;2023-11-21T12:27:23;27;24;
70691;PMS5003;58267;51.156;17.044;2023-11-21T12:29:48;25;23;
70691;PMS5003;58267;51.156;17.044;2023-11-21T12:32:13;31;31;
70691;PMS5003;58267;51.156;17.044;2023-11-21T12:34:38;27;26;
70691;PMS5003;58267;51.156;17.044;2023-11-21T12:37:04;27;25;
70691;PMS5003;58267;51.156;17.044;2023-11-21T12:39:29;28;25;
70691;PMS5003;58267;51.156;17.044;2023-11-21T12:41:55;16;16;
70691;PMS5003;58267;51.156;17.044;2023-11-21T12:44:20;28;26;
70691;PMS5003;58267;51.156;17.044;2023-11-21T12:46:46;25;24;
70691;PMS5003;58267;51.156;17.044;2023-11-21T12:49:11;26;24;
70691;PMS5003;58267;51.156;17.044;2023-11-21T12:51:37;22;21;
70691;PMS5003;58267;51.156;17.044;2023-11-21T12:54:03;23;21;
70691;PMS5003;58267;51.156;17.044;2023-11-21T12:56:28;22;21;
70691;PMS5003;58267;51.156;17.044;2023-11-21T12:58:54;21;21;
70691;PMS5003;58267;51.156;17.044;2023-11-21T13:01:19;24;23;
70691;PMS5003;58267;51.156;17.044;2023-11-21T13:03:47;22;21;
70691;PMS5003;58267;51.156;17.044;2023-11-21T13:06:11;19;19;
70691;PMS5003;58267;51.156;17.044;2023-11-21T13:08:36;18;18;
70691;PMS5003;58267;51.156;17.044;2023-11-21T13:11:01;23;21;
70691;PMS5003;58267;51.156;17.044;2023-11-21T13:13:28;20;19;
70691;PMS5003;58267;51.156;17.044;2023-11-21T13:15:52;21;20;
70691;PMS5003;58267;51.156;17.044;2023-11-21T13:18:17;24;21;
70691;PMS5003;58267;51.156;17.044;2023-11-21T13:20:43;21;20;
70691;PMS5003;58267;51.156;17.044;2023-11-21T13:23:09;22;22;
70691;PMS5003;58267;51.156;17.044;2023-11-21T13:25:34;22;22;
70691;PMS5003;58267;51.156;17.044;2023-11-21T13:28:00;20;19;
70691;PMS5003;58267;51.156;17.044;2023-11-21T13:30:25;18;18;
70691;PMS5003;58267;51.156;17.044;2023-11-21T13:32:52;23;23;
70691;PMS5003;58267;51.156;17.044;2023-11-21T13:35:16;21;19;
70691;PMS5003;58267;51.156;17.044;2023-11-21T13:37:42;19;18;
70691;PMS5003;58267;51.156;17.044;2023-11-21T13:40:07;23;20;
70691;PMS5003;58267;51.156;17.044;2023-11-21T13:42:33;23;20;
70691;PMS5003;58267;51.156;17.044;2023-11-21T13:44:59;21;21;
70691;PMS5003;58267;51.156;17.044;2023-11-21T13:47:25;21;21;
70691;PMS5003;58267;51.156;17.044;2023-11-21T13:49:50;25;24;
70691;PMS5003;58267;51.156;17.044;2023-11-21T13:52:16;22;20;
70691;PMS5003;58267;51.156;17.044;2023-11-21T13:54:41;18;17;
70691;PMS5003;58267;51.156;17.044;2023-11-21T13:57:07;21;21;
70691;PMS5003;58267;51.156;17.044;2023-11-21T13:59:32;23;22;
70691;PMS5003;58267;51.156;17.044;2023-11-21T14:01:58;20;20;
70691;PMS5003;58267;51.156;17.044;2023-11-21T14:04:24;17;17;
70691;PMS5003;58267;51.156;17.044;2023-11-21T14:06:50;20;19;
70691;PMS5003;58267;51.156;17.044;2023-11-21T14:09:15;23;21;
70691;PMS5003;58267;51.156;17.044;2023-11-21T14:11:40;21;21;
70691;PMS5003;58267;51.156;17.044;2023-11-21T14:14:05;24;23;
70691;PMS5003;58267;51.156;17.044;2023-11-21T14:16:30;23;22;
70691;PMS5003;58267;51.156;17.044;2023-11-21T14:18:56;23;21;
70691;PMS5003;58267;51.156;17.044;2023-11-21T14:21:21;22;20;
70691;PMS5003;58267;51.156;17.044;2023-11-21T14:23:47;18;18;
70691;PMS5003;58267;51.156;17.044;2023-11-21T14:26:12;26;24;
70691;PMS5003;58267;51.156;17.044;2023-11-21T14:28:38;19;18;
70691;PMS5003;58267;51.156;17.044;2023-11-21T14:31:04;23;23;
70691;PMS5003;58267;51.156;17.044;2023-11-21T14:33:29;24;22;
70691;PMS5003;58267;51.156;17.044;2023-11-21T14:35:55;24;23;
70691;PMS5003;58267;51.156;17.044;2023-11-21T14:38:20;28;27;
70691;PMS5003;58267;51.156;17.044;2023-11-21T14:40:46;31;29;
70691;PMS5003;58267;51.156;17.044;2023-11-21T14:43:11;29;28;
70691;PMS5003;58267;51.156;17.044;2023-11-21T14:45:37;30;29;
70691;PMS5003;58267;51.156;17.044;2023-11-21T14:48:02;32;32;
70691;PMS5003;58267;51.156;17.044;2023-11-21T14:50:27;38;36;
70691;PMS5003;58267;51.156;17.044;2023-11-21T14:52:52;28;26;
70691;PMS5003;58267;51.156;17.044;2023-11-21T14:55:17;27;25;
70691;PMS5003;58267;51.156;17.044;2023-11-21T14:57:43;26;25;
70691;PMS5003;58267;51.156;17.044;2023-11-21T15:00:09;28;27;
70691;PMS5003;58267;51.156;17.044;2023-11-21T15:02:34;27;26;
70691;PMS5003;58267;51.156;17.044;2023-11-21T15:04:59;31;30;
70691;PMS5003;58267;51.156;17.044;2023-11-21T15:07:25;26;25;
70691;PMS5003;58267;51.156;17.044;2023-11-21T15:09:51;29;29;
70691;PMS5003;58267;51.156;17.044;2023-11-21T15:12:16;31;31;
70691;PMS5003;58267;51.156;17.044;2023-11-21T15:14:42;28;27;
70691;PMS5003;58267;51.156;17.044;2023-11-21T15:17:07;31;31;
70691;PMS5003;58267;51.156;17.044;2023-11-21T15:19:32;29;27;
70691;PMS5003;58267;51.156;17.044;2023-11-21T15:21:58;40;38;
70691;PMS5003;58267;51.156;17.044;2023-11-21T15:24:23;39;37;
70691;PMS5003;58267;51.156;17.044;2023-11-21T15:26:48;28;27;
70691;PMS5003;58267;51.156;17.044;2023-11-21T15:29:14;34;31;
70691;PMS5003;58267;51.156;17.044;2023-11-21T15:31:39;32;30;
70691;PMS5003;58267;51.156;17.044;2023-11-21T15:34:04;32;31;
70691;PMS5003;58267;51.156;17.044;2023-11-21T15:36:30;26;26;
70691;PMS5003;58267;51.156;17.044;2023-11-21T15:38:55;30;29;
70691;PMS5003;58267;51.156;17.044;2023-11-21T15:41:21;29;27;
70691;PMS5003;58267;51.156;17.044;2023-11-21T15:43:46;32;30;
70691;PMS5003;58267;51.156;17.044;2023-11-21T15:46:12;30;29;
70691;PMS5003;58267;51.156;17.044;2023-11-21T15:48:37;33;32;
70691;PMS5003;58267;51.156;17.044;2023-11-21T15:51:02;35;30;
70691;PMS5003;58267;51.156;17.044;2023-11-21T15:53:27;30;28;
70691;PMS5003;58267;51.156;17.044;2023-11-21T15:55:53;27;26;
70691;PMS5003;58267;51.156;17.044;2023-11-21T15:58:18;27;26;
70691;PMS5003;58267;51.156;17.044;2023-11-21T16:00:44;32;30;